Urbana, Illinois
Current Conditions -  °F | °C
As of 3:53 PM on Monday 20 Oct 2014 (Local Time) from KCMI Reporting Station
Few Clouds Few Clouds  
Wind Chill: 68°   Ceiling: Unl
Heat Index: 68°   Visibility: 10mi
Dew Point: 46°   Wind: 16mph
Humidity: 45%   Direction: 310°NW
Pressure: 29.89"   Gusts: 24mph
Location:  40.12°N, 88.2°W
Report Text: KCMI 202053Z 31014G21KT 10SM FEW041 20/08 A2989 RMK AO2 SLP119 T02000078 53000 $
Loading
Personal Weather Stations






























Interactive Weather Map
Tropical Storm Tracking
New forecast layout! Learn more

10-Day Weather Forecast

Advertisements
Track Severe Weather on mobile